Time;durP1;ratioP1;P1;durP2;ratioP2;P2;SDS_P1;SDS_P2;PMS_P1;PMS_P2;Temp;Humidity;BMP_temperature;BMP_pressure;BME280_temperature;BME280_humidity;BME280_pressure;Samples;Min_cycle;Max_cycle;Signal;HPM_P1;HPM_P2
2024/01/06 00:00:10;;;;;;;36.92;16.40;;;;;;;8.17;70.43;99666.88;3132262;28;20077;-68
2024/01/06 00:01:42;;;;;;;44.25;19.10;;;;;;;8.16;70.33;99666.91;3132421;28;20060;-67
2024/01/06 00:03:13;;;;;;;48.50;19.58;;;;;;;8.13;70.27;99659.25;3132162;28;20048;-67
2024/01/06 00:04:46;;;;;;;45.10;20.67;;;;;;;8.10;70.36;99647.25;3132278;28;20049;-68
2024/01/06 00:06:17;;;;;;;45.67;20.27;;;;;;;8.06;70.64;99644.84;3131801;28;20045;-67
2024/01/06 00:07:49;;;;;;;51.95;21.58;;;;;;;7.98;70.49;99634.72;3132590;28;20049;-68
2024/01/06 00:09:20;;;;;;;49.55;21.02;;;;;;;8.02;70.58;99641.50;3132255;28;20672;-67
2024/01/06 00:10:52;;;;;;;50.40;21.20;;;;;;;8.01;70.56;99638.97;3131993;28;20059;-66
2024/01/06 00:12:22;;;;;;;57.75;26.95;;;;;;;7.96;70.72;99640.00;3132209;28;20045;-67
2024/01/06 00:13:54;;;;;;;65.57;28.08;;;;;;;7.92;70.63;99645.34;3132282;28;20139;-67
2024/01/06 00:15:25;;;;;;;66.53;31.20;;;;;;;7.89;70.78;99643.69;3132042;28;20079;-67
2024/01/06 00:16:57;;;;;;;70.75;34.67;;;;;;;7.83;70.66;99646.50;3132059;28;20049;-66
2024/01/06 00:18:27;;;;;;;72.07;36.80;;;;;;;7.79;71.20;99650.13;3131778;28;20053;-67
2024/01/06 00:20:02;;;;;;;73.53;36.58;;;;;;;7.76;71.05;99642.47;3132439;28;20615;-67
2024/01/06 00:21:33;;;;;;;83.43;37.40;;;;;;;7.79;70.87;99655.31;3130975;28;20469;-67
2024/01/06 00:23:04;;;;;;;75.30;36.78;;;;;;;7.79;70.78;99657.91;3132081;28;20198;-66
2024/01/06 00:24:35;;;;;;;75.85;38.25;;;;;;;7.78;71.01;99656.22;3132109;28;20061;-66
2024/01/06 00:26:08;;;;;;;77.07;38.22;;;;;;;7.76;70.69;99663.19;3132425;28;20053;-67
2024/01/06 00:27:39;;;;;;;80.85;39.47;;;;;;;7.75;70.97;99672.72;3132034;28;20723;-66
2024/01/06 00:29:10;;;;;;;75.80;37.13;;;;;;;7.75;71.00;99671.88;3131534;28;20055;-67
2024/01/06 00:30:41;;;;;;;78.60;37.38;;;;;;;7.59;71.05;99643.06;3131923;28;20458;-66
2024/01/06 00:32:13;;;;;;;74.63;35.08;;;;;;;7.77;70.69;99664.03;3132019;28;20056;-67
2024/01/06 00:33:44;;;;;;;73.68;34.92;;;;;;;7.79;70.63;99665.69;3131891;28;20067;-67
2024/01/06 00:35:17;;;;;;;66.57;32.35;;;;;;;7.81;70.67;99663.88;3131926;28;20052;-67
2024/01/06 00:36:48;;;;;;;72.93;33.65;;;;;;;7.79;70.82;99665.69;3131763;28;20052;-68
2024/01/06 00:38:19;;;;;;;67.40;31.48;;;;;;;7.80;70.64;99662.19;3131731;28;20060;-67
2024/01/06 00:39:50;;;;;;;66.35;32.13;;;;;;;7.82;70.74;99664.72;3131773;28;20098;-67
2024/01/06 00:41:22;;;;;;;65.20;31.15;;;;;;;7.39;70.45;99588.50;3131905;28;20163;-67
2024/01/06 00:42:53;;;;;;;70.82;32.75;;;;;;;7.84;70.81;99662.91;3131899;28;20438;-68
2024/01/06 00:44:25;;;;;;;59.40;30.17;;;;;;;7.84;70.70;99658.59;3131481;28;20053;-68
2024/01/06 00:45:55;;;;;;;58.75;29.23;;;;;;;7.85;70.66;99652.50;3123992;28;20060;-67
2024/01/06 00:47:27;;;;;;;60.47;30.73;;;;;;;7.85;70.51;99644.72;3129046;28;20510;-67
2024/01/06 00:48:59;;;;;;;60.10;28.63;;;;;;;7.85;70.22;99642.13;3132026;28;20049;-68
2024/01/06 00:50:32;;;;;;;64.65;30.83;;;;;;;7.87;70.30;99635.16;3131497;28;20099;-68
2024/01/06 00:52:03;;;;;;;66.60;29.40;;;;;;;7.81;70.45;99622.41;3131875;28;20041;-67
2024/01/06 00:53:35;;;;;;;66.85;30.05;;;;;;;7.85;70.54;99636.94;3131780;28;20041;-68
2024/01/06 00:55:06;;;;;;;63.05;29.77;;;;;;;7.86;70.39;99623.06;3131710;28;20060;-68
2024/01/06 00:56:38;;;;;;;60.13;28.90;;;;;;;7.86;70.56;99623.06;3131602;28;20159;-67
2024/01/06 00:58:09;;;;;;;67.25;30.23;;;;;;;7.86;70.40;99625.66;3131854;28;20057;-67
2024/01/06 00:59:41;;;;;;;62.05;29.52;;;;;;;7.85;70.49;99639.53;3131676;28;20367;-67
2024/01/06 01:01:12;;;;;;;51.40;26.13;;;;;;;7.85;70.54;99638.69;3131916;28;20502;-67
2024/01/06 01:02:43;;;;;;;60.67;28.20;;;;;;;7.82;70.76;99641.41;3131409;28;20045;-69
2024/01/06 01:04:14;;;;;;;61.20;27.85;;;;;;;7.77;70.71;99636.38;3131762;28;20045;-67
2024/01/06 01:05:47;;;;;;;59.03;28.80;;;;;;;7.77;70.72;99638.97;3131916;28;20167;-66
2024/01/06 01:07:18;;;;;;;59.45;27.55;;;;;;;7.72;70.88;99638.31;3131583;28;20052;-67
2024/01/06 01:08:50;;;;;;;54.72;27.20;;;;;;;7.71;71.22;99644.38;3131844;28;20148;-67
2024/01/06 01:10:21;;;;;;;53.20;26.40;;;;;;;7.66;71.06;99639.38;3131413;28;20045;-67
2024/01/06 01:11:53;;;;;;;60.45;26.90;;;;;;;7.64;71.35;99627.38;3131916;28;20502;-66
2024/01/06 01:13:23;;;;;;;55.15;26.98;;;;;;;7.63;71.24;99642.06;3131700;28;20056;-67
2024/01/06 01:14:56;;;;;;;63.35;28.05;;;;;;;7.64;71.35;99635.97;3131375;28;20048;-67
2024/01/06 01:16:27;;;;;;;58.67;26.23;;;;;;;7.58;71.56;99617.22;3131632;28;20469;-67
2024/01/06 01:17:58;;;;;;;62.30;27.52;;;;;;;7.67;71.41;99619.47;3131993;28;20060;-67
2024/01/06 01:19:29;;;;;;;56.63;27.08;;;;;;;7.69;71.53;99612.47;3131617;28;20045;-67
2024/01/06 01:21:02;;;;;;;60.38;27.17;;;;;;;7.70;71.48;99604.66;3131501;28;20146;-67
2024/01/06 01:22:33;;;;;;;63.42;26.75;;;;;;;7.65;71.48;99603.13;3132041;28;20053;-67
2024/01/06 01:24:05;;;;;;;56.42;26.95;;;;;;;7.70;71.46;99615.03;3131787;28;20148;-67
2024/01/06 01:25:36;;;;;;;57.17;26.55;;;;;;;7.70;71.60;99615.03;3131589;28;20079;-67
2024/01/06 01:27:08;;;;;;;60.28;24.73;;;;;;;7.72;71.32;99613.22;3131544;28;20470;-67
2024/01/06 01:28:39;;;;;;;59.15;25.45;;;;;;;7.73;71.56;99614.06;3131406;28;20136;-66
2024/01/06 01:30:11;;;;;;;57.55;27.08;;;;;;;7.74;71.47;99615.75;3131441;28;20053;-69
2024/01/06 01:31:42;;;;;;;66.53;26.98;;;;;;;7.74;71.41;99624.38;3131744;28;20064;-68
2024/01/06 01:33:14;;;;;;;57.17;26.00;;;;;;;7.73;71.43;99629.63;3133494;28;20530;-68
2024/01/06 01:34:45;;;;;;;57.83;26.92;;;;;;;7.74;71.43;99631.28;3133942;28;20053;-66
2024/01/06 01:36:18;;;;;;;52.53;26.08;;;;;;;7.77;71.37;99628.59;3133953;28;20053;-68
2024/01/06 01:37:49;;;;;;;58.47;26.73;;;;;;;7.76;71.55;99619.13;3133935;28;20049;-67
2024/01/06 01:39:21;;;;;;;50.63;25.52;;;;;;;7.65;71.57;99601.38;3133741;28;20072;-67
2024/01/06 01:40:51;;;;;;;64.15;25.95;;;;;;;7.77;71.39;99613.03;3133723;28;20048;-67
2024/01/06 01:42:23;;;;;;;51.72;24.73;;;;;;;7.43;71.47;99559.03;3133494;28;20510;-65
2024/01/06 01:43:58;;;;;;;59.63;25.50;;;;;;;7.76;71.44;99619.13;3133863;28;20049;-66
2024/01/06 01:45:29;;;;;;;50.85;25.35;;;;;;;7.75;71.32;99628.66;3133855;28;20517;-66
2024/01/06 01:47:00;;;;;;;59.35;26.80;;;;;;;7.76;71.51;99629.50;3133429;28;20071;-66
2024/01/06 01:48:34;;;;;;;51.60;25.20;;;;;;;7.76;71.75;99624.31;3133738;28;20068;-66
2024/01/06 01:50:05;;;;;;;;;;;;;;;7.62;71.68;99639.53;3133978;28;20124;-66
2024/01/06 01:51:38;;;;;;;57.90;23.33;;;;;;;7.61;71.97;99630.91;3133517;28;19920;-66
2024/01/06 01:53:10;;;;;;;47.78;23.48;;;;;;;7.65;71.79;99623.84;3133681;28;20155;-66
2024/01/06 01:54:44;;;;;;;57.63;25.52;;;;;;;7.67;71.92;99620.31;3133495;28;20131;-66
2024/01/06 01:56:15;;;;;;;59.50;25.95;;;;;;;7.63;71.89;99610.09;3133706;28;20097;-66
2024/01/06 01:57:47;;;;;;;50.67;24.13;;;;;;;7.66;71.94;99613.44;3133615;28;20606;-68
2024/01/06 01:59:19;;;;;;;51.80;23.10;;;;;;;7.65;71.99;99613.50;3134251;28;20843;-68
2024/01/06 02:00:51;;;;;;;51.35;24.73;;;;;;;7.65;71.94;99623.84;3133653;28;20049;-68
2024/01/06 02:02:22;;;;;;;51.50;24.05;;;;;;;7.59;72.10;99617.16;3133537;28;20049;-67
2024/01/06 02:03:54;;;;;;;49.78;22.55;;;;;;;7.44;72.30;99586.59;3133996;28;20441;-68
2024/01/06 02:05:25;;;;;;;50.05;22.40;;;;;;;7.60;72.23;99615.41;3133325;28;20060;-67
2024/01/06 02:06:58;;;;;;;51.67;21.60;;;;;;;7.62;72.39;99609.25;3133202;28;20109;-68
2024/01/06 02:08:29;;;;;;;44.00;21.30;;;;;;;7.59;72.21;99608.53;3133532;28;20075;-68
2024/01/06 02:10:01;;;;;;;46.75;20.27;;;;;;;7.59;72.35;99611.13;3133705;28;20788;-67
2024/01/06 02:11:31;;;;;;;49.70;21.45;;;;;;;7.58;72.48;99605.09;3133171;28;20049;-70
2024/01/06 02:13:13;;;;;;;42.70;19.95;;;;;;;7.60;nan;99599.84;3133515;28;20052;-69
2024/01/06 02:14:43;;;;;;;38.30;19.13;;;;;;;7.57;72.27;99593.03;3133291;28;20053;-68
2024/01/06 02:16:15;;;;;;;49.10;20.10;;;;;;;7.53;72.32;99587.13;3133434;28;20044;-71
2024/01/06 02:17:46;;;;;;;40.78;19.30;;;;;;;7.53;72.58;99581.09;3133442;28;20045;-70
2024/01/06 02:19:18;;;;;;;41.15;19.67;;;;;;;7.56;72.31;99580.97;3132650;28;20044;-70
2024/01/06 02:20:51;;;;;;;44.28;19.83;;;;;;;7.48;72.34;99559.66;3133264;28;20095;-68
2024/01/06 02:22:23;;;;;;;39.55;19.35;;;;;;;7.59;72.24;99582.63;3133420;28;20045;-70
2024/01/06 02:23:55;;;;;;;47.17;19.30;;;;;;;7.57;72.44;99587.00;3133682;28;20115;-70
2024/01/06 02:25:26;;;;;;;40.08;18.98;;;;;;;7.58;72.16;99589.56;3133374;28;20394;-69
2024/01/06 02:26:58;;;;;;;42.70;19.48;;;;;;;7.58;72.14;99586.13;3133406;28;20662;-68
2024/01/06 02:28:29;;;;;;;45.25;19.25;;;;;;;7.52;72.07;99576.81;3133429;28;20607;-68
2024/01/06 02:30:01;;;;;;;36.85;18.05;;;;;;;7.55;72.38;99588.81;3132692;28;20044;-68
2024/01/06 02:31:32;;;;;;;41.30;18.38;;;;;;;7.32;72.12;99551.63;3133409;28;20143;-68
2024/01/06 02:33:04;;;;;;;39.28;17.67;;;;;;;7.55;72.41;99599.19;3133319;28;20052;-69
2024/01/06 02:34:34;;;;;;;37.83;17.15;;;;;;;7.54;72.18;99595.72;3133330;28;20052;-69
2024/01/06 02:36:07;;;;;;;37.65;17.65;;;;;;;7.52;72.13;99600.13;3133495;28;20063;-68
2024/01/06 02:37:39;;;;;;;40.70;18.33;;;;;;;7.52;72.24;99600.97;3133562;28;20427;-68
2024/01/06 02:39:11;;;;;;;35.97;16.95;;;;;;;7.48;72.43;99590.75;3133050;28;20178;-68
2024/01/06 02:40:42;;;;;;;41.88;17.10;;;;;;;7.19;72.13;99548.63;3133272;28;20548;-71
2024/01/06 02:42:14;;;;;;;39.25;16.90;;;;;;;7.44;72.52;99587.44;3128708;28;20052;-70
2024/01/06 02:43:45;;;;;;;32.97;16.73;;;;;;;7.43;72.55;99583.19;3127790;28;20060;-70
2024/01/06 02:45:17;;;;;;;38.33;17.23;;;;;;;7.44;72.50;99578.84;3127574;28;20151;-70
2024/01/06 02:46:48;;;;;;;37.63;14.90;;;;;;;7.44;72.56;99584.00;3127729;28;20052;-70
2024/01/06 02:48:19;;;;;;;33.28;15.40;;;;;;;7.41;72.53;99582.38;3128033;28;20379;-70
2024/01/06 02:49:51;;;;;;;35.20;15.75;;;;;;;7.43;72.57;99578.00;3128144;28;20061;-70
2024/01/06 02:51:22;;;;;;;31.60;15.73;;;;;;;7.37;72.36;99573.03;3128034;28;20490;-70
2024/01/06 02:52:55;;;;;;;37.83;15.48;;;;;;;7.43;72.36;99584.94;3128116;28;20061;-71
2024/01/06 02:54:26;;;;;;;30.08;14.60;;;;;;;7.22;72.58;99566.66;3128113;28;20060;-73
2024/01/06 02:55:58;;;;;;;40.63;17.50;;;;;;;7.35;72.63;99592.97;3127979;28;20083;-72
2024/01/06 02:57:29;;;;;;;34.65;15.45;;;;;;;7.26;72.64;99582.91;3127815;28;20057;-73
2024/01/06 02:59:01;;;;;;;32.75;14.68;;;;;;;7.22;72.67;99576.16;3127920;28;20045;-73
2024/01/06 03:00:32;;;;;;;33.45;14.70;;;;;;;7.26;72.77;99588.09;3127849;28;20123;-71
2024/01/06 03:02:04;;;;;;;35.53;15.32;;;;;;;7.23;72.84;99596.81;3127900;28;20338;-70
2024/01/06 03:03:36;;;;;;;34.45;15.43;;;;;;;7.22;72.84;99594.31;3127994;28;20049;-71
2024/01/06 03:05:07;;;;;;;34.25;16.08;;;;;;;7.19;72.84;99584.88;3127865;28;20510;-71
2024/01/06 03:06:39;;;;;;;31.25;14.73;;;;;;;7.23;72.90;99596.81;3127723;28;20064;-70
2024/01/06 03:08:12;;;;;;;33.40;15.10;;;;;;;7.23;72.73;99599.41;3127702;28;20052;-71
2024/01/06 03:09:43;;;;;;;33.15;15.00;;;;;;;7.21;72.91;99588.25;3127884;28;20065;-70
2024/01/06 03:11:14;;;;;;;32.30;15.77;;;;;;;7.21;73.01;99592.59;3127838;28;20045;-71
2024/01/06 03:12:46;;;;;;;35.47;15.73;;;;;;;7.18;72.93;99582.34;3127830;28;20052;-71
2024/01/06 03:14:17;;;;;;;33.97;14.90;;;;;;;7.16;72.82;99587.59;3127435;28;20135;-70
2024/01/06 03:15:49;;;;;;;33.33;16.50;;;;;;;7.09;73.13;99569.72;3127957;28;20131;-70
2024/01/06 03:17:20;;;;;;;29.80;14.90;;;;;;;7.12;72.88;99577.38;3127949;28;20057;-70
2024/01/06 03:18:52;;;;;;;41.42;15.30;;;;;;;7.09;72.98;99570.56;3127608;28;20052;-70
2024/01/06 03:20:23;;;;;;;36.42;15.90;;;;;;;7.06;73.22;99575.84;3127707;28;20052;-70
2024/01/06 03:21:55;;;;;;;38.10;15.57;;;;;;;7.04;73.04;99573.31;3128074;28;20064;-70
2024/01/06 03:23:27;;;;;;;33.15;15.10;;;;;;;7.07;73.08;99577.53;3127620;28;20056;-70
2024/01/06 03:24:59;;;;;;;33.70;15.55;;;;;;;7.06;73.05;99568.91;3127845;28;20056;-71
2024/01/06 03:26:30;;;;;;;38.05;14.50;;;;;;;7.08;73.00;99563.69;3127557;28;20061;-71
2024/01/06 03:28:02;;;;;;;30.00;14.95;;;;;;;7.10;73.03;99567.09;3127689;28;20936;-70
2024/01/06 03:29:34;;;;;;;29.60;14.27;;;;;;;7.10;73.01;99566.22;3127327;28;20547;-70
2024/01/06 03:31:06;;;;;;;32.08;14.50;;;;;;;7.11;72.81;99558.41;3127444;28;20411;-70
2024/01/06 03:32:37;;;;;;;34.75;15.18;;;;;;;7.05;73.08;99553.44;3127489;28;20110;-70
2024/01/06 03:34:09;;;;;;;28.30;15.13;;;;;;;7.12;73.07;99567.00;3127648;28;20566;-70
2024/01/06 03:35:39;;;;;;;34.28;15.35;;;;;;;7.11;72.76;99566.19;3127486;28;20080;-70
2024/01/06 03:37:11;;;;;;;34.70;14.50;;;;;;;6.98;72.82;99547.63;3127254;28;20045;-70
2024/01/06 03:38:43;;;;;;;31.63;14.45;;;;;;;7.06;73.17;99555.97;3127370;28;20053;-71
2024/01/06 03:40:15;;;;;;;26.63;13.88;;;;;;;7.09;72.89;99569.72;3127265;28;20055;-71
2024/01/06 03:41:47;;;;;;;32.13;14.75;;;;;;;7.09;72.97;99574.88;3127480;28;20053;-71
2024/01/06 03:43:19;;;;;;;34.88;14.48;;;;;;;7.07;73.07;99570.63;3127282;28;20163;-71
2024/01/06 03:44:50;;;;;;;33.92;13.27;;;;;;;7.06;72.84;99570.66;3127089;28;20056;-70
2024/01/06 03:46:22;;;;;;;30.50;15.13;;;;;;;6.98;73.06;99560.59;3127605;28;20130;-70
2024/01/06 03:47:53;;;;;;;33.10;13.85;;;;;;;7.01;73.04;99573.41;3115305;28;20506;-69
2024/01/06 03:49:25;;;;;;;26.92;13.65;;;;;;;7.02;73.26;99571.69;3126639;28;20056;-69
2024/01/06 03:50:56;;;;;;;30.08;14.43;;;;;;;7.02;73.24;99569.94;3127047;28;20045;-70
2024/01/06 03:52:28;;;;;;;26.58;12.73;;;;;;;6.99;73.07;99569.19;3127074;28;20139;-69
2024/01/06 03:54:00;;;;;;;32.25;13.80;;;;;;;7.01;73.03;99572.56;3127375;28;20053;-69
2024/01/06 03:55:32;;;;;;;34.80;14.63;;;;;;;7.01;73.03;99563.06;3127392;28;20144;-69
2024/01/06 03:57:02;;;;;;;34.08;14.15;;;;;;;6.91;73.02;99540.13;3127195;28;20044;-71
2024/01/06 03:58:35;;;;;;;31.48;13.60;;;;;;;7.05;72.86;99561.22;3127059;28;20695;-70
2024/01/06 04:00:07;;;;;;;32.50;13.23;;;;;;;7.07;72.98;99564.59;3127596;28;20856;-70
2024/01/06 04:01:39;;;;;;;27.20;13.00;;;;;;;7.05;73.07;99559.47;3127427;28;20147;-70
2024/01/06 04:03:10;;;;;;;28.80;14.20;;;;;;;7.07;73.22;99569.78;3127018;28;20084;-69
2024/01/06 04:04:42;;;;;;;27.30;13.48;;;;;;;7.05;73.00;99554.28;3127026;28;20520;-70
2024/01/06 04:06:13;;;;;;;28.25;12.93;;;;;;;7.10;72.92;99564.50;3126811;28;20506;-70
2024/01/06 04:07:44;;;;;;;30.55;13.85;;;;;;;7.10;72.81;99561.03;3127371;28;20057;-71
2024/01/06 04:09:17;;;;;;;33.08;13.15;;;;;;;7.12;72.91;99559.25;3127473;28;20118;-71
2024/01/06 04:10:49;;;;;;;33.28;14.63;;;;;;;7.12;72.68;99578.22;3127103;28;20110;-70
2024/01/06 04:12:20;;;;;;;28.40;13.77;;;;;;;7.13;72.61;99572.16;3126919;28;20110;-72
2024/01/06 04:13:52;;;;;;;30.92;13.48;;;;;;;7.15;72.84;99566.91;3127161;28;20143;-70
2024/01/06 04:15:22;;;;;;;29.67;13.27;;;;;;;7.15;72.50;99574.69;3126923;28;20874;-70
2024/01/06 04:16:56;;;;;;;30.88;13.23;;;;;;;7.14;72.50;99573.00;3126783;28;20159;-69
2024/01/06 04:18:27;;;;;;;28.50;12.95;;;;;;;7.13;72.54;99566.97;3127072;28;20525;-71
2024/01/06 04:19:59;;;;;;;31.92;14.10;;;;;;;7.12;72.68;99567.84;3127259;28;20053;-71
2024/01/06 04:21:30;;;;;;;34.80;15.07;;;;;;;7.15;72.56;99567.75;3126952;28;20052;-71
2024/01/06 04:23:01;;;;;;;33.10;14.15;;;;;;;7.16;72.45;99563.41;3127180;28;20845;-69
2024/01/06 04:24:37;;;;;;;31.30;13.55;;;;;;;7.19;72.60;99569.34;3126818;28;20082;-68
2024/01/06 04:26:08;;;;;;;30.00;12.60;;;;;;;7.16;72.44;99556.50;3127147;28;20072;-66
2024/01/06 04:27:40;;;;;;;34.13;13.75;;;;;;;7.18;72.50;99559.88;3126936;28;20056;-67
2024/01/06 04:29:11;;;;;;;26.98;12.60;;;;;;;7.20;72.25;99562.41;3126707;28;20076;-68
2024/01/06 04:30:43;;;;;;;27.92;12.05;;;;;;;7.20;72.33;99558.06;3126772;28;20143;-68
2024/01/06 04:32:15;;;;;;;31.65;13.57;;;;;;;7.21;72.35;99562.34;3127173;28;20060;-68
2024/01/06 04:33:46;;;;;;;29.17;12.93;;;;;;;7.20;72.38;99558.06;3126946;28;20636;-68
2024/01/06 04:35:19;;;;;;;25.20;11.95;;;;;;;7.20;72.20;99562.41;3126744;28;20053;-73
2024/01/06 04:36:51;;;;;;;26.17;12.98;;;;;;;7.18;72.39;99557.28;3126988;28;20882;-73
2024/01/06 04:38:21;;;;;;;32.28;14.15;;;;;;;7.20;72.27;99560.66;3126780;28;20053;-74
2024/01/06 04:39:55;;;;;;;25.25;12.68;;;;;;;7.16;72.28;99550.47;3126981;28;20052;-74
2024/01/06 04:41:25;;;;;;;30.58;13.40;;;;;;;7.19;72.00;99560.75;3127014;28;20052;-73
2024/01/06 04:42:57;;;;;;;25.90;12.63;;;;;;;7.19;72.27;99571.94;3114564;28;20208;-74
2024/01/06 04:44:28;;;;;;;29.33;12.60;;;;;;;7.19;72.31;99576.28;3125993;28;20501;-74
2024/01/06 04:46:00;;;;;;;26.17;12.50;;;;;;;7.18;71.99;99579.75;3126961;28;20056;-73
2024/01/06 04:47:31;;;;;;;28.08;12.20;;;;;;;7.17;72.03;99568.53;3126318;28;20733;-74
2024/01/06 04:49:03;;;;;;;27.02;12.50;;;;;;;7.11;72.06;99560.16;3126603;28;20195;-74
2024/01/06 04:50:34;;;;;;;27.95;13.35;;;;;;;7.16;72.14;99568.59;3126673;28;20076;-74
2024/01/06 04:52:06;;;;;;;29.52;14.05;;;;;;;7.14;72.17;99580.75;3126883;28;20049;-74
2024/01/06 04:53:38;;;;;;;25.88;13.02;;;;;;;7.14;72.07;99579.00;3126859;28;20508;-73
2024/01/06 04:55:12;;;;;;;27.73;13.30;;;;;;;7.13;72.31;99574.75;3126893;28;20049;-72
2024/01/06 04:56:43;;;;;;;29.55;12.40;;;;;;;7.12;72.09;99573.03;3126707;28;20056;-71
2024/01/06 04:58:14;;;;;;;24.27;12.68;;;;;;;7.12;72.19;99572.19;3126749;28;20064;-71
2024/01/06 04:59:45;;;;;;;22.25;12.38;;;;;;;7.10;72.14;99568.81;3126681;28;20123;-71
2024/01/06 05:01:17;;;;;;;24.70;12.68;;;;;;;7.12;72.28;99574.78;3126771;28;20045;-71
2024/01/06 05:02:48;;;;;;;27.17;12.35;;;;;;;7.05;72.09;99568.97;3126852;28;20063;-72
2024/01/06 05:04:20;;;;;;;25.25;12.15;;;;;;;7.08;72.03;99568.88;3126743;28;20178;-70
2024/01/06 05:05:50;;;;;;;23.80;11.35;;;;;;;7.09;72.27;99572.31;3126867;28;20625;-71
2024/01/06 05:07:22;;;;;;;28.25;13.07;;;;;;;7.08;72.12;99566.28;3126985;28;20057;-70
2024/01/06 05:08:54;;;;;;;23.63;12.57;;;;;;;7.07;72.05;99560.25;3129011;28;20056;-70
2024/01/06 05:10:26;;;;;;;23.67;11.15;;;;;;;7.08;72.00;99558.50;3116917;28;20054;-72
2024/01/06 05:11:58;;;;;;;23.80;11.85;;;;;;;7.07;71.84;99564.59;3128802;28;20052;-71
2024/01/06 05:13:29;;;;;;;22.77;12.15;;;;;;;7.06;71.83;99570.66;3129082;28;20395;-73
2024/01/06 05:15:01;;;;;;;22.33;11.80;;;;;;;7.04;72.03;99575.06;3128921;28;20064;-71
2024/01/06 05:16:33;;;;;;;28.60;11.80;;;;;;;7.01;71.86;99564.78;3129076;28;20569;-71
2024/01/06 05:18:04;;;;;;;25.02;11.88;;;;;;;6.98;71.97;99558.00;3129247;28;20052;-71
2024/01/06 05:19:37;;;;;;;25.52;11.57;;;;;;;6.93;71.97;99548.69;3129149;28;20048;-71
2024/01/06 05:21:07;;;;;;;22.45;11.82;;;;;;;7.00;71.84;99576.03;3129276;28;20053;-71
2024/01/06 05:22:39;;;;;;;25.92;11.70;;;;;;;6.99;71.79;99574.38;3129043;28;20122;-69
2024/01/06 05:24:10;;;;;;;25.48;12.35;;;;;;;6.98;71.99;99583.00;3129399;28;20536;-70
2024/01/06 05:25:43;;;;;;;25.15;12.52;;;;;;;6.98;71.79;99576.13;3129160;28;20104;-69
2024/01/06 05:27:14;;;;;;;25.85;13.02;;;;;;;6.96;72.11;99569.28;3128816;28;20538;-70
2024/01/06 05:28:46;;;;;;;26.58;12.77;;;;;;;6.95;71.99;99573.63;3128692;28;20049;-68
2024/01/06 05:30:18;;;;;;;26.85;12.32;;;;;;;6.91;72.08;99574.63;3129134;28;20136;-70
2024/01/06 05:31:49;;;;;;;21.63;12.20;;;;;;;6.92;72.08;99572.88;3129027;28;20089;-71
2024/01/06 05:33:20;;;;;;;29.63;12.32;;;;;;;6.89;72.25;99580.75;3128875;28;20056;-71
2024/01/06 05:34:52;;;;;;;26.85;12.70;;;;;;;6.88;72.18;99582.47;3128823;28;20049;-72
2024/01/06 05:36:23;;;;;;;30.63;12.52;;;;;;;6.88;72.22;99587.66;3128752;28;20514;-72
2024/01/06 05:37:55;;;;;;;26.17;12.32;;;;;;;6.87;72.08;99585.97;3129022;28;20060;-72
2024/01/06 05:39:26;;;;;;;27.55;13.30;;;;;;;6.85;72.03;99598.13;3128665;28;20676;-69
2024/01/06 05:40:59;;;;;;;27.00;12.80;;;;;;;6.86;72.02;99594.63;3128943;28;20053;-69
2024/01/06 05:42:31;;;;;;;30.52;12.63;;;;;;;6.84;72.11;99593.84;3128772;28;20155;-71
2024/01/06 05:44:02;;;;;;;26.95;12.65;;;;;;;6.82;72.13;99596.47;3126485;28;20119;-70
2024/01/06 05:45:34;;;;;;;27.17;12.15;;;;;;;6.82;72.29;99599.06;3127582;28;20049;-69
2024/01/06 05:47:05;;;;;;;23.17;11.10;;;;;;;6.83;72.21;99599.91;3128984;28;20068;-69
2024/01/06 05:48:36;;;;;;;29.80;11.98;;;;;;;6.82;72.29;99593.88;3128874;28;20125;-69
2024/01/06 05:50:10;;;;;;;28.92;11.93;;;;;;;6.84;72.15;99591.25;3129023;28;20052;-69
2024/01/06 05:51:45;;;;;;;25.85;13.68;;;;;;;6.81;72.37;99588.78;3128882;28;20086;-69
2024/01/06 05:53:18;;;;;;;26.55;13.10;;;;;;;6.81;72.35;99596.53;3128773;28;20521;-71
2024/01/06 05:54:50;;;;;;;27.20;13.20;;;;;;;6.75;72.35;99584.66;3128850;28;20052;-71
2024/01/06 05:56:25;;;;;;;28.67;12.90;;;;;;;6.77;72.28;99588.03;3128514;28;20664;-70
2024/01/06 05:57:57;;;;;;;26.17;12.60;;;;;;;6.72;72.65;99584.75;3128639;28;20140;-70
2024/01/06 05:59:28;;;;;;;31.70;14.02;;;;;;;6.72;72.41;99591.66;3128522;28;20588;-70
2024/01/06 06:01:00;;;;;;;29.63;14.15;;;;;;;6.73;72.61;99588.19;3128525;28;20068;-68
2024/01/06 06:02:31;;;;;;;24.50;12.90;;;;;;;6.71;72.71;99590.78;3128572;28;20519;-68
2024/01/06 06:04:03;;;;;;;27.08;13.13;;;;;;;6.71;72.69;99585.63;3128996;28;20053;-67
2024/01/06 06:05:34;;;;;;;29.35;13.32;;;;;;;6.70;72.89;99591.69;3116655;28;20054;-68
2024/01/06 06:07:06;;;;;;;28.42;13.82;;;;;;;6.70;72.63;99578.75;3128071;28;20084;-68
2024/01/06 06:08:37;;;;;;;30.02;13.00;;;;;;;6.70;72.97;99588.28;3128572;28;20677;-68
2024/01/06 06:10:10;;;;;;;30.95;13.82;;;;;;;6.69;72.93;99581.41;3128824;28;20049;-68
2024/01/06 06:11:42;;;;;;;30.10;13.85;;;;;;;6.70;72.77;99583.09;3128588;28;20068;-69
2024/01/06 06:13:14;;;;;;;27.27;13.73;;;;;;;6.67;73.01;99572.84;3128770;28;20053;-70
2024/01/06 06:14:45;;;;;;;27.35;13.13;;;;;;;6.69;73.09;99579.66;3128150;28;20542;-71
2024/01/06 06:16:17;;;;;;;24.98;12.35;;;;;;;6.69;73.13;99571.91;3128645;28;20055;-72
2024/01/06 06:17:49;;;;;;;28.63;12.18;;;;;;;6.71;73.12;99572.69;3128281;28;20059;-70
2024/01/06 06:19:20;;;;;;;30.27;12.90;;;;;;;6.73;73.05;99570.06;3127107;28;20119;-71
2024/01/06 06:20:52;;;;;;;30.05;14.48;;;;;;;6.75;72.83;99576.03;3128387;28;20056;-71
2024/01/06 06:22:25;;;;;;;25.50;12.90;;;;;;;6.74;72.95;99572.59;3128422;28;20084;-70
2024/01/06 06:23:57;;;;;;;26.55;12.05;;;;;;;6.72;72.97;99570.97;3125788;28;20075;-71
2024/01/06 06:25:28;;;;;;;31.13;14.18;;;;;;;6.71;72.97;99557.16;3120185;28;20187;-70
2024/01/06 06:27:01;;;;;;;28.48;13.27;;;;;;;6.75;72.79;99560.50;3121738;28;20082;-66
2024/01/06 06:28:32;;;;;;;30.25;14.07;;;;;;;6.73;72.93;99559.72;3122158;28;20511;-66
2024/01/06 06:30:05;;;;;;;27.08;13.27;;;;;;;6.75;72.76;99558.75;3122775;28;20110;-67
2024/01/06 06:31:36;;;;;;;33.78;14.60;;;;;;;6.75;73.00;99557.94;3125719;28;20056;-67
2024/01/06 06:33:08;;;;;;;27.25;13.40;;;;;;;6.77;72.90;99546.63;3124918;28;20060;-71
2024/01/06 06:34:39;;;;;;;27.92;12.75;;;;;;;6.72;72.90;99538.16;3126370;28;20049;-64
2024/01/06 06:36:11;;;;;;;31.50;13.05;;;;;;;6.78;73.03;99542.28;3126730;28;20099;-64
2024/01/06 06:37:42;;;;;;;30.17;13.75;;;;;;;6.63;72.80;99509.16;3126528;28;20107;-66
2024/01/06 06:39:14;;;;;;;40.05;13.93;;;;;;;6.69;72.72;99514.13;3126028;28;20845;-66
2024/01/06 06:40:45;;;;;;;26.92;13.52;;;;;;;6.78;72.80;99530.19;3126535;28;20502;-63
2024/01/06 06:42:18;;;;;;;30.08;15.15;;;;;;;6.73;72.76;99523.47;3126623;28;20049;-68
2024/01/06 06:43:49;;;;;;;;;;;;;;;6.66;72.93;99534.94;3127420;28;20056;-68
2024/01/06 06:45:22;;;;;;;123.13;50.08;;;;;;;6.71;72.95;99541.63;3126938;28;19959;-68
2024/01/06 06:46:53;;;;;;;;;;;;;;;6.63;73.08;99543.66;3127615;28;20183;-65
2024/01/06 06:48:25;;;;;;;35.35;16.70;;;;;;;6.64;73.11;99528.97;3128024;28;20492;-65
2024/01/06 06:49:56;;;;;;;33.92;15.13;;;;;;;6.68;73.00;99533.13;3127989;28;20064;-63
2024/01/06 06:51:29;;;;;;;30.35;13.55;;;;;;;6.75;72.94;99547.56;3127636;28;20546;-67
2024/01/06 06:53:00;;;;;;;;;;;;;;;6.66;73.17;99548.72;3128698;28;20493;-72
2024/01/06 06:54:32;;;;;;;67.05;30.90;;;;;;;6.73;73.32;99557.13;3127836;28;19924;-69
2024/01/06 06:56:03;;;;;;;58.50;28.58;;;;;;;6.79;72.96;99547.41;3128086;28;20052;-66
2024/01/06 06:57:37;;;;;;;27.48;15.52;;;;;;;6.87;73.07;99541.13;3127804;28;20060;-63
2024/01/06 06:59:07;;;;;;;;;;;;;;;6.77;72.73;99546.63;3128013;28;20546;-65
2024/01/06 07:00:39;;;;;;;27.70;12.13;;;;;;;6.81;73.02;99543.03;3127852;28;19939;-64
2024/01/06 07:02:10;;;;;;;30.95;13.13;;;;;;;6.87;73.02;99544.56;3127906;28;20040;-63
2024/01/06 07:03:42;;;;;;;25.33;12.63;;;;;;;6.89;72.91;99554.84;3128157;28;20071;-64
2024/01/06 07:05:13;;;;;;;26.95;13.90;;;;;;;6.91;72.88;99559.09;3127846;28;20464;-61
2024/01/06 07:06:45;;;;;;;25.88;11.48;;;;;;;6.91;72.84;99546.13;3127833;28;20139;-70